createdAt,value
2023-01-27T00:00:49.507Z,10.88
2023-01-27T00:05:43.828Z,9.10
2023-01-27T00:08:11.069Z,8.65
2023-01-27T00:10:38.331Z,7.90
2023-01-27T00:13:24.194Z,11.15
2023-01-27T00:15:51.391Z,10.05
2023-01-27T00:18:18.584Z,10.18
2023-01-27T00:21:04.348Z,10.00
2023-01-27T00:23:50.004Z,10.25
2023-01-27T00:26:18.556Z,10.35
2023-01-27T00:28:46.800Z,8.30
2023-01-27T00:31:34.116Z,6.93
2023-01-27T00:34:09.311Z,11.80
2023-01-27T00:36:37.755Z,8.00
2023-01-27T00:39:05.951Z,7.88
2023-01-27T00:41:34.465Z,11.57
2023-01-27T00:44:02.140Z,6.97
2023-01-27T00:46:29.501Z,11.13
2023-01-27T00:48:56.707Z,9.55
2023-01-27T00:51:24.362Z,8.25
2023-01-27T00:53:51.665Z,10.30
2023-01-27T00:56:19.391Z,12.30
2023-01-27T00:58:46.592Z,9.52
2023-01-27T01:01:15.959Z,9.35
2023-01-27T01:03:43.357Z,11.73
2023-01-27T01:06:11.953Z,10.63
2023-01-27T01:08:39.737Z,9.05
2023-01-27T01:11:08.119Z,14.00
2023-01-27T01:13:35.624Z,11.13
2023-01-27T01:16:10.454Z,14.98
2023-01-27T01:18:39.028Z,11.50
2023-01-27T01:21:09.651Z,15.63
2023-01-27T01:26:03.958Z,10.63
2023-01-27T01:28:31.226Z,13.02
2023-01-27T01:31:04.481Z,13.80
2023-01-27T01:33:31.774Z,13.02
2023-01-27T01:36:03.592Z,13.65
2023-01-27T01:38:30.878Z,13.60
2023-01-27T01:40:58.073Z,10.25
2023-01-27T01:43:26.976Z,11.38
2023-01-27T01:45:58.640Z,12.45
2023-01-27T01:48:40.990Z,13.13
2023-01-27T01:51:13.425Z,12.80
2023-01-27T01:53:43.798Z,13.18
2023-01-27T01:56:20.075Z,11.18
2023-01-27T01:58:47.448Z,13.43
2023-01-27T02:01:15.496Z,15.50
2023-01-27T02:03:43.968Z,14.32
2023-01-27T02:06:13.425Z,13.35
2023-01-27T02:08:43.106Z,15.38
2023-01-27T02:11:10.720Z,14.95
2023-01-27T02:13:38.768Z,13.25
2023-01-27T02:16:06.366Z,10.07
2023-01-27T02:18:33.682Z,13.30
2023-01-27T02:21:01.704Z,9.80
2023-01-27T02:23:43.443Z,11.05
2023-01-27T02:26:14.829Z,12.88
2023-01-27T02:28:42.196Z,13.75
2023-01-27T02:31:09.740Z,14.68
2023-01-27T02:33:37.021Z,12.57
2023-01-27T02:36:07.552Z,15.40
2023-01-27T02:38:36.980Z,11.27
2023-01-27T02:41:09.480Z,11.77
2023-01-27T02:43:36.808Z,14.13
2023-01-27T02:46:04.293Z,12.70
2023-01-27T02:48:31.647Z,16.70
2023-01-27T02:50:59.840Z,15.25
2023-01-27T02:53:29.034Z,8.77
2023-01-27T02:55:56.405Z,14.70
2023-01-27T02:58:23.915Z,15.25
2023-01-27T03:00:54.126Z,17.15
2023-01-27T03:03:21.396Z,15.75
2023-01-27T03:05:50.939Z,15.52
2023-01-27T03:08:18.870Z,15.95
2023-01-27T03:10:50.235Z,15.93
2023-01-27T03:13:17.586Z,16.95
2023-01-27T03:16:03.312Z,16.88
2023-01-27T03:18:30.923Z,14.25
2023-01-27T03:21:02.785Z,16.15
2023-01-27T03:23:34.242Z,17.67
2023-01-27T03:26:02.753Z,11.52
2023-01-27T03:28:30.467Z,19.92
2023-01-27T03:31:03.659Z,12.90
2023-01-27T03:33:47.789Z,14.60
2023-01-27T03:36:45.971Z,14.38
2023-01-27T03:39:31.875Z,13.00
2023-01-27T03:42:17.996Z,14.07
2023-01-27T03:45:04.579Z,13.95
2023-01-27T03:47:31.895Z,11.02
2023-01-27T03:49:59.055Z,18.08
2023-01-27T03:52:26.246Z,13.82
2023-01-27T03:54:53.356Z,11.93
2023-01-27T03:57:20.567Z,12.60
2023-01-27T03:59:47.678Z,13.00
2023-01-27T04:02:33.351Z,12.57
2023-01-27T04:05:18.838Z,14.35
2023-01-27T04:07:45.938Z,13.15
2023-01-27T04:10:13.225Z,11.13
2023-01-27T04:12:40.500Z,11.35
2023-01-27T04:15:08.585Z,12.05
2023-01-27T04:17:39.123Z,10.38
2023-01-27T04:20:06.645Z,11.20
2023-01-27T04:22:33.815Z,11.60
2023-01-27T04:25:01.029Z,12.43
2023-01-27T04:27:28.285Z,11.10
2023-01-27T04:29:55.480Z,11.52
2023-01-27T04:32:22.746Z,9.18
2023-01-27T04:34:49.880Z,10.55
2023-01-27T04:37:17.969Z,7.20
2023-01-27T04:39:45.999Z,10.02
2023-01-27T04:42:13.198Z,7.38
2023-01-27T04:44:40.571Z,10.65
2023-01-27T04:47:07.741Z,8.63
2023-01-27T04:49:34.872Z,8.73
2023-01-27T04:52:02.189Z,10.15
2023-01-27T04:54:29.359Z,9.50
2023-01-27T04:56:58.099Z,8.90
2023-01-27T04:59:25.324Z,7.18
2023-01-27T05:01:52.669Z,9.25
2023-01-27T05:04:19.897Z,7.95
2023-01-27T05:06:47.111Z,8.57
2023-01-27T05:09:14.338Z,9.07
2023-01-27T05:11:41.557Z,6.22
2023-01-27T05:14:08.713Z,5.80
2023-01-27T05:16:35.925Z,6.85
2023-01-27T05:19:03.385Z,7.72
2023-01-27T05:21:31.155Z,10.07
2023-01-27T05:23:58.448Z,10.00
2023-01-27T05:26:26.978Z,8.90
2023-01-27T05:28:55.426Z,6.95
2023-01-27T05:31:32.268Z,6.65
2023-01-27T05:34:00.504Z,7.95
2023-01-27T05:36:28.044Z,8.80
2023-01-27T05:38:55.940Z,8.95
2023-01-27T05:41:23.377Z,8.70
2023-01-27T05:43:55.055Z,7.82
2023-01-27T05:46:23.718Z,5.72
2023-01-27T05:48:51.980Z,10.02
2023-01-27T05:51:20.745Z,8.65
2023-01-27T05:53:48.305Z,9.82
2023-01-27T05:56:16.963Z,9.00
2023-01-27T05:58:44.554Z,8.43
2023-01-27T06:01:11.977Z,6.10
2023-01-27T06:03:39.638Z,8.38
2023-01-27T06:06:08.072Z,12.75
2023-01-27T06:08:35.649Z,7.60
2023-01-27T06:11:02.901Z,7.07
2023-01-27T06:13:30.170Z,8.88
2023-01-27T06:15:57.369Z,7.43
2023-01-27T06:18:24.990Z,7.57
2023-01-27T06:20:52.094Z,6.82
2023-01-27T06:23:19.507Z,7.88
2023-01-27T06:25:49.467Z,7.28
2023-01-27T06:28:28.833Z,5.55
2023-01-27T06:30:56.678Z,8.82
2023-01-27T06:33:24.054Z,5.97
2023-01-27T06:35:51.589Z,6.43
2023-01-27T06:38:18.747Z,6.00
2023-01-27T06:40:45.905Z,7.70
2023-01-27T06:43:13.781Z,6.85
2023-01-27T06:45:41.140Z,6.75
2023-01-27T06:48:09.023Z,6.65
2023-01-27T06:50:37.108Z,7.68
2023-01-27T06:53:05.675Z,6.28
2023-01-27T06:55:33.232Z,7.35
2023-01-27T06:58:01.683Z,5.55
2023-01-27T07:00:28.937Z,7.35
2023-01-27T07:02:56.823Z,5.90
2023-01-27T07:05:24.237Z,7.97
2023-01-27T07:07:51.630Z,8.80
2023-01-27T07:10:18.842Z,9.32
2023-01-27T07:12:45.952Z,10.95
2023-01-27T07:15:13.530Z,6.40
2023-01-27T07:17:40.821Z,8.85
2023-01-27T07:20:09.932Z,7.78
2023-01-27T07:22:37.284Z,7.90
2023-01-27T07:25:05.136Z,8.55
2023-01-27T07:27:32.303Z,6.88
2023-01-27T07:29:59.558Z,7.38
2023-01-27T07:32:28.392Z,7.20
2023-01-27T07:34:55.702Z,8.60
2023-01-27T07:37:23.107Z,6.40
2023-01-27T07:39:50.331Z,6.97
2023-01-27T07:42:17.479Z,5.72
2023-01-27T07:44:44.749Z,7.57
2023-01-27T07:47:12.049Z,11.07
2023-01-27T07:49:39.294Z,8.45
2023-01-27T07:52:06.546Z,5.90
2023-01-27T07:54:33.753Z,7.78
2023-01-27T07:57:01.768Z,9.57
2023-01-27T07:59:29.234Z,7.53
2023-01-27T08:01:56.547Z,6.88
2023-01-27T08:04:23.664Z,6.13
2023-01-27T08:06:50.920Z,7.70
2023-01-27T08:09:18.290Z,6.03
2023-01-27T08:11:45.496Z,6.95
2023-01-27T08:14:12.618Z,6.95
2023-01-27T08:16:39.818Z,7.97
2023-01-27T08:19:07.033Z,8.07
2023-01-27T08:21:34.153Z,10.13
2023-01-27T08:24:01.464Z,7.40
2023-01-27T08:26:29.039Z,10.73
2023-01-27T08:28:56.313Z,22.17
2023-01-27T08:31:23.596Z,9.98
2023-01-27T08:33:51.997Z,9.90
2023-01-27T08:36:19.848Z,9.85
2023-01-27T08:38:49.360Z,5.22
2023-01-27T08:41:21.129Z,5.63
2023-01-27T08:43:48.675Z,6.38
2023-01-27T08:46:16.609Z,6.70
2023-01-27T08:48:43.839Z,5.63
2023-01-27T08:51:12.498Z,9.82
2023-01-27T08:53:40.190Z,8.27
2023-01-27T08:56:09.372Z,7.60
2023-01-27T08:58:36.922Z,6.05
2023-01-27T09:01:05.852Z,6.20
2023-01-27T09:03:34.084Z,9.05
2023-01-27T09:06:01.536Z,6.88
2023-01-27T09:08:29.058Z,7.32
2023-01-27T09:10:56.245Z,6.68
2023-01-27T09:13:23.440Z,5.78
2023-01-27T09:15:54.090Z,4.68
2023-01-27T09:18:21.971Z,4.80
2023-01-27T09:20:49.187Z,5.13
2023-01-27T09:23:16.380Z,4.80
2023-01-27T09:25:43.611Z,6.07
2023-01-27T09:28:17.173Z,4.63
2023-01-27T09:30:47.449Z,5.85
2023-01-27T09:35:50.974Z,6.00
2023-01-27T09:38:20.277Z,7.45
2023-01-27T09:40:53.744Z,5.22
2023-01-27T09:43:39.252Z,5.70
2023-01-27T09:46:12.715Z,5.78
2023-01-27T09:48:40.195Z,5.22
2023-01-27T09:51:19.850Z,3.83
2023-01-27T09:53:47.008Z,5.03
2023-01-27T09:56:21.021Z,5.68
2023-01-27T09:58:51.558Z,4.90
2023-01-27T10:01:33.966Z,7.55
2023-01-27T10:04:01.153Z,3.88
2023-01-27T10:06:40.693Z,6.95
2023-01-27T10:09:20.315Z,6.05
2023-01-27T10:11:53.700Z,6.45
2023-01-27T10:14:40.359Z,3.75
2023-01-27T10:17:15.968Z,5.28
2023-01-27T10:20:01.894Z,3.75
2023-01-27T10:22:28.980Z,4.78
2023-01-27T10:25:11.690Z,5.00
2023-01-27T10:27:41.407Z,5.90
2023-01-27T10:30:31.375Z,6.47
2023-01-27T10:33:13.830Z,6.00
2023-01-27T10:35:50.465Z,7.32
2023-01-27T10:40:51.248Z,7.00
2023-01-27T10:43:18.528Z,7.65
2023-01-27T10:45:55.690Z,7.25
2023-01-27T10:48:30.901Z,6.40
2023-01-27T10:51:05.419Z,6.35
2023-01-27T10:54:00.050Z,4.45
2023-01-27T10:56:39.447Z,6.72
2023-01-27T10:59:06.908Z,7.45
2023-01-27T11:01:36.756Z,7.65
2023-01-27T11:04:16.725Z,6.22
2023-01-27T11:06:44.732Z,8.68
2023-01-27T11:09:15.064Z,8.70
2023-01-27T11:11:46.559Z,7.70
2023-01-27T11:14:13.876Z,8.82
2023-01-27T11:16:43.186Z,5.22
2023-01-27T11:19:24.762Z,7.68
2023-01-27T11:22:06.264Z,7.85
2023-01-27T11:24:42.180Z,6.97
2023-01-27T11:27:18.713Z,5.80
2023-01-27T11:29:53.967Z,7.10
2023-01-27T11:32:29.447Z,6.22
2023-01-27T11:35:04.409Z,6.50
2023-01-27T11:37:33.214Z,5.93
2023-01-27T11:40:00.713Z,7.45
2023-01-27T11:42:31.710Z,9.30
2023-01-27T11:44:59.436Z,7.40
2023-01-27T11:47:32.495Z,7.55
2023-01-27T11:50:01.335Z,6.78
2023-01-27T11:52:29.365Z,7.28
2023-01-27T11:55:06.433Z,7.35
2023-01-27T11:57:34.062Z,6.65
2023-01-27T12:00:02.172Z,7.25
2023-01-27T12:05:14.601Z,7.63
2023-01-27T12:10:30.780Z,6.78
2023-01-27T12:12:59.748Z,7.88
2023-01-27T12:15:28.690Z,9.52
2023-01-27T12:18:04.418Z,7.53
2023-01-27T12:20:36.569Z,7.55
2023-01-27T12:23:06.276Z,7.45
2023-01-27T12:25:42.448Z,8.18
2023-01-27T12:28:18.670Z,9.60
2023-01-27T12:30:47.648Z,6.82
2023-01-27T12:33:21.455Z,8.35
2023-01-27T12:35:50.198Z,7.45
2023-01-27T12:38:20.935Z,6.53
2023-01-27T12:40:48.905Z,6.53
2023-01-27T12:43:17.666Z,6.10
2023-01-27T12:45:45.403Z,6.13
2023-01-27T12:48:12.869Z,6.88
2023-01-27T12:50:41.261Z,7.03
2023-01-27T12:53:34.798Z,8.15
2023-01-27T12:56:08.316Z,7.78
2023-01-27T12:58:38.542Z,9.25
2023-01-27T13:01:21.074Z,6.90
2023-01-27T13:03:59.736Z,7.50
2023-01-27T13:06:41.968Z,7.75
2023-01-27T13:09:41.697Z,6.97
2023-01-27T13:12:23.098Z,10.05
2023-01-27T13:14:51.588Z,9.55
2023-01-27T13:17:31.072Z,7.25
2023-01-27T13:20:03.880Z,10.63
2023-01-27T13:22:33.589Z,8.27
2023-01-27T13:25:03.739Z,7.40
2023-01-27T13:27:36.563Z,6.25
2023-01-27T13:30:25.869Z,5.38
2023-01-27T13:32:54.647Z,7.82
2023-01-27T13:35:21.862Z,6.05
2023-01-27T13:38:11.404Z,7.45
2023-01-27T13:40:41.718Z,7.03
2023-01-27T13:43:08.999Z,6.68
2023-01-27T13:45:41.654Z,6.68
2023-01-27T13:48:25.380Z,6.78
2023-01-27T13:51:03.746Z,6.70
2023-01-27T13:53:31.039Z,6.57
2023-01-27T13:56:16.981Z,6.85
2023-01-27T13:58:56.352Z,6.80
2023-01-27T14:01:23.727Z,6.15
2023-01-27T14:04:01.908Z,5.82
2023-01-27T14:06:46.153Z,6.47
2023-01-27T14:09:18.730Z,7.38
2023-01-27T14:11:51.797Z,6.50
2023-01-27T14:14:43.714Z,7.00
2023-01-27T14:17:33.548Z,6.65
2023-01-27T14:20:19.508Z,6.70
2023-01-27T14:22:51.015Z,5.72
2023-01-27T14:25:23.645Z,7.28
2023-01-27T14:28:00.392Z,6.38
2023-01-27T14:30:35.139Z,6.28
2023-01-27T14:33:02.506Z,6.32
2023-01-27T14:35:32.877Z,5.45
2023-01-27T14:38:00.127Z,4.40
2023-01-27T14:40:31.276Z,5.93
2023-01-27T14:43:09.035Z,7.65
2023-01-27T14:45:41.136Z,8.75
2023-01-27T14:48:08.329Z,6.72
2023-01-27T14:50:47.789Z,8.32
2023-01-27T14:53:27.395Z,7.63
2023-01-27T14:56:02.387Z,8.65
2023-01-27T14:58:47.944Z,10.35
2023-01-27T15:01:23.409Z,8.65
2023-01-27T15:03:53.709Z,12.20
2023-01-27T15:06:31.343Z,9.02
2023-01-27T15:09:17.046Z,7.43
2023-01-27T15:11:44.401Z,6.07
2023-01-27T15:14:37.163Z,8.55
2023-01-27T15:17:27.082Z,7.35
2023-01-27T15:20:02.848Z,7.35
2023-01-27T15:22:55.828Z,7.25
2023-01-27T15:25:23.064Z,7.82
2023-01-27T15:27:52.714Z,5.80
2023-01-27T15:30:23.074Z,23.23
2023-01-27T15:32:50.430Z,15.98
2023-01-27T15:35:33.521Z,7.93
2023-01-27T15:38:03.945Z,15.45
2023-01-27T15:40:31.466Z,11.23
2023-01-27T15:43:00.416Z,8.07
2023-01-27T15:45:32.595Z,8.20
2023-01-27T15:48:11.228Z,7.32
2023-01-27T15:50:39.939Z,9.50
2023-01-27T15:53:15.412Z,8.88
2023-01-27T15:56:03.079Z,5.43
2023-01-27T15:58:35.732Z,4.72
2023-01-27T16:01:04.384Z,9.32
2023-01-27T16:03:46.052Z,8.13
2023-01-27T16:06:17.759Z,6.93
2023-01-27T16:08:57.155Z,8.23
2023-01-27T16:11:24.742Z,8.95
2023-01-27T16:13:52.146Z,8.65
2023-01-27T16:16:19.424Z,9.77
2023-01-27T16:18:53.109Z,8.70
2023-01-27T16:21:32.686Z,10.82
2023-01-27T16:24:04.378Z,9.82
2023-01-27T16:26:41.104Z,7.93
2023-01-27T16:29:17.667Z,8.45
2023-01-27T16:31:46.862Z,8.32
2023-01-27T16:34:23.217Z,8.82
2023-01-27T16:37:05.197Z,10.90
2023-01-27T16:39:38.355Z,8.10
2023-01-27T16:42:06.079Z,8.98
2023-01-27T16:44:42.281Z,7.55
2023-01-27T16:47:25.576Z,9.57
2023-01-27T16:49:56.584Z,10.10
2023-01-27T16:52:40.821Z,8.55
2023-01-27T16:55:19.626Z,9.85
2023-01-27T16:57:46.857Z,8.77
2023-01-27T17:00:20.685Z,8.65
2023-01-27T17:02:49.979Z,11.45
2023-01-27T17:05:18.867Z,8.63
2023-01-27T17:08:06.377Z,11.75
2023-01-27T17:10:35.112Z,7.60
2023-01-27T17:13:03.238Z,10.52
2023-01-27T17:15:35.159Z,10.80
2023-01-27T17:18:03.235Z,9.18
2023-01-27T17:20:32.668Z,9.98
2023-01-27T17:23:00.559Z,8.40
2023-01-27T17:25:32.656Z,7.47
2023-01-27T17:28:00.949Z,9.25
2023-01-27T17:30:34.763Z,10.95
2023-01-27T17:33:03.020Z,9.70
2023-01-27T17:35:34.724Z,5.97
2023-01-27T17:38:10.859Z,10.48
2023-01-27T17:40:40.817Z,8.93
2023-01-27T17:43:22.666Z,9.20
2023-01-27T17:45:51.414Z,9.30
2023-01-27T17:48:20.200Z,8.07
2023-01-27T17:50:50.919Z,7.05
2023-01-27T17:53:25.116Z,8.25
2023-01-27T17:55:56.532Z,23.25
2023-01-27T17:58:26.861Z,23.30
2023-01-27T18:00:55.088Z,16.15
2023-01-27T18:03:24.227Z,14.48
2023-01-27T18:05:53.752Z,11.68
2023-01-27T18:08:23.654Z,12.32
2023-01-27T18:11:09.323Z,9.57
2023-01-27T18:13:38.558Z,7.25
2023-01-27T18:16:17.347Z,7.35
2023-01-27T18:18:45.665Z,10.25
2023-01-27T18:21:19.974Z,8.57
2023-01-27T18:23:48.341Z,9.10
2023-01-27T18:26:22.102Z,32.60
2023-01-27T18:28:51.248Z,12.13
2023-01-27T18:31:24.528Z,80.90
2023-01-27T18:34:02.431Z,98.70
2023-01-27T18:37:15.855Z,51.30
2023-01-27T18:39:43.689Z,17.23
2023-01-27T18:42:14.140Z,10.20
2023-01-27T18:44:41.407Z,8.82
2023-01-27T18:47:17.169Z,9.35
2023-01-27T18:49:52.087Z,9.15
2023-01-27T18:55:31.123Z,12.38
2023-01-27T18:58:02.926Z,18.08
2023-01-27T19:00:53.086Z,25.17
2023-01-27T19:03:25.421Z,92.57
2023-01-27T19:05:56.162Z,40.00
2023-01-27T19:08:26.118Z,21.80
2023-01-27T19:10:54.506Z,35.85
2023-01-27T19:13:23.817Z,11.45
2023-01-27T19:15:53.919Z,9.32
2023-01-27T19:18:25.169Z,9.85
2023-01-27T19:20:53.884Z,10.30
2023-01-27T19:23:22.234Z,10.48
2023-01-27T19:25:54.374Z,12.27
2023-01-27T19:31:13.911Z,17.58
2023-01-27T19:33:44.435Z,12.80
2023-01-27T19:36:20.840Z,24.63
2023-01-27T19:38:48.389Z,16.13
2023-01-27T19:41:15.931Z,12.00
2023-01-27T19:43:45.733Z,10.27
2023-01-27T19:46:16.611Z,9.77
2023-01-27T19:48:44.040Z,10.63
2023-01-27T19:51:12.126Z,11.57
2023-01-27T19:53:39.503Z,11.98
2023-01-27T19:56:14.244Z,10.38
2023-01-27T19:58:41.458Z,10.60
2023-01-27T20:01:09.664Z,12.85
2023-01-27T20:03:36.969Z,10.45
2023-01-27T20:06:04.309Z,11.15
2023-01-27T20:08:31.873Z,11.77
2023-01-27T20:10:59.343Z,11.48
2023-01-27T20:13:26.831Z,12.65
2023-01-27T20:15:54.207Z,11.13
2023-01-27T20:18:23.847Z,13.95
2023-01-27T20:20:51.319Z,13.75
2023-01-27T20:23:18.710Z,14.95
2023-01-27T20:25:46.014Z,15.60
2023-01-27T20:28:13.187Z,14.10
2023-01-27T20:30:45.633Z,14.20
2023-01-27T20:33:14.447Z,11.43
2023-01-27T20:35:42.216Z,11.65
2023-01-27T20:38:09.870Z,11.90
2023-01-27T20:40:37.600Z,14.73
2023-01-27T20:43:04.829Z,13.07
2023-01-27T20:45:32.685Z,11.82
2023-01-27T20:47:59.825Z,10.50
2023-01-27T20:50:27.071Z,10.32
2023-01-27T20:52:54.341Z,15.35
2023-01-27T20:55:21.685Z,15.57
2023-01-27T20:57:49.746Z,14.15
2023-01-27T21:00:18.115Z,14.50
2023-01-27T21:02:45.468Z,16.80
2023-01-27T21:05:13.468Z,14.80
2023-01-27T21:07:40.916Z,19.33
2023-01-27T21:10:08.287Z,11.38
2023-01-27T21:12:35.539Z,11.43
2023-01-27T21:15:08.096Z,13.27
2023-01-27T21:17:35.295Z,13.18
2023-01-27T21:20:02.561Z,13.90
2023-01-27T21:22:29.777Z,10.57
2023-01-27T21:24:57.632Z,13.13
2023-01-27T21:27:24.912Z,11.98
2023-01-27T21:29:52.818Z,11.43
2023-01-27T21:32:20.055Z,16.58
2023-01-27T21:34:49.506Z,18.25
2023-01-27T21:37:16.609Z,15.18
2023-01-27T21:39:49.871Z,12.63
2023-01-27T21:42:17.471Z,12.95
2023-01-27T21:45:03.516Z,11.65
2023-01-27T21:47:31.171Z,14.82
2023-01-27T21:50:01.272Z,14.80
2023-01-27T21:52:33.714Z,12.30
2023-01-27T21:55:01.697Z,11.05
2023-01-27T22:00:27.547Z,11.68
2023-01-27T22:03:05.972Z,14.65
2023-01-27T22:11:22.275Z,11.65
2023-01-27T22:13:50.099Z,11.57
2023-01-27T22:16:18.651Z,12.95
2023-01-27T22:18:46.602Z,11.80
2023-01-27T22:21:14.295Z,14.77
2023-01-27T22:33:00.376Z,11.48
2023-01-27T22:35:29.346Z,11.70
2023-01-27T22:41:01.697Z,14.50
2023-01-27T22:43:29.232Z,15.75
2023-01-27T22:46:03.247Z,12.82
2023-01-27T23:03:06.678Z,12.43
2023-01-27T23:14:14.919Z,12.00
2023-01-27T23:16:42.360Z,12.10
2023-01-27T23:19:09.755Z,9.45
2023-01-27T23:21:37.562Z,14.90
2023-01-27T23:24:07.508Z,15.05
2023-01-27T23:26:35.336Z,15.57
2023-01-27T23:29:02.825Z,13.05
2023-01-27T23:31:30.335Z,15.88
2023-01-27T23:33:57.708Z,12.60
2023-01-27T23:36:26.336Z,14.73
2023-01-27T23:38:53.999Z,14.70
2023-01-27T23:41:21.924Z,13.13
2023-01-27T23:43:52.964Z,13.38
2023-01-27T23:46:20.557Z,13.52
2023-01-27T23:48:54.813Z,12.10
2023-01-27T23:51:22.978Z,12.10
2023-01-27T23:53:51.263Z,12.05
2023-01-27T23:56:20.618Z,10.75
2023-01-27T23:58:48.107Z,12.32
